Terminal Aerodrome Forecast
Issued by NWS Houston/Galveston, TX

Home | Current Version | Previous Version | Text Only | Print | Product List | Glossary On
Versions: 1 2 3 4 5 6 7 8 9 10 11 12 13 14 15 16
000
FTUS44 KHGX 222321
TAFCLL
TAF
KCLL 222321Z 2300/2324 18005KT P6SM BKN250
     FM230900 17008KT P6SM BKN015
     FM231600 19010G20KT P6SM SCT035 BKN050=

USA.gov is the U.S. government's official web portal to all federal, state and local government web resources and services.